Carlisle, Indiana
Current Conditions -  °F | °C
As of 3:35 AM on Tuesday 27 Jan 2015 (Local Time) from KRSV Reporting Station
Haze Haze  
Wind Chill: 30°   Ceiling: 500
Heat Index: 30°   Visibility: 3mi
Dew Point: 29°   Wind: 0mph
Humidity: 99%   Direction: NA
Pressure: 29.94"   Gusts: NA
Location:  38.97°N, 87.41°W
Report Text: KRSV 270835Z AUTO 00000KT 3SM BR OVC005 M01/M01 A2994 RMK AO2 T10121014
Loading
Personal Weather Stations






























Interactive Weather Map New forecast layout! Learn more

10-Day Weather Forecast

Advertisements
Track Severe Weather on mobile